sensor_id;sensor_type;location;lat;lon;timestamp;P1;durP1;ratioP1;P2;durP2;ratioP2
836;SDS011;400;53.550;9.932;2023-02-28T00:01:10;2.22;;;2.03;;
836;SDS011;400;53.550;9.932;2023-02-28T00:03:37;4.10;;;1.45;;
836;SDS011;400;53.550;9.932;2023-02-28T00:06:05;3.75;;;1.65;;
836;SDS011;400;53.550;9.932;2023-02-28T00:08:34;2.22;;;1.40;;
836;SDS011;400;53.550;9.932;2023-02-28T00:11:01;3.05;;;1.60;;
836;SDS011;400;53.550;9.932;2023-02-28T00:13:30;2.42;;;1.60;;
836;SDS011;400;53.550;9.932;2023-02-28T00:15:58;2.78;;;1.90;;
836;SDS011;400;53.550;9.932;2023-02-28T00:18:26;2.72;;;1.85;;
836;SDS011;400;53.550;9.932;2023-02-28T00:20:53;7.35;;;2.30;;
836;SDS011;400;53.550;9.932;2023-02-28T00:23:20;3.50;;;1.73;;
836;SDS011;400;53.550;9.932;2023-02-28T00:25:47;4.15;;;1.83;;
836;SDS011;400;53.550;9.932;2023-02-28T00:28:13;2.58;;;1.70;;
836;SDS011;400;53.550;9.932;2023-02-28T00:30:42;2.50;;;1.60;;
836;SDS011;400;53.550;9.932;2023-02-28T00:33:09;3.65;;;1.90;;
836;SDS011;400;53.550;9.932;2023-02-28T00:35:37;7.10;;;2.42;;
836;SDS011;400;53.550;9.932;2023-02-28T00:38:04;3.53;;;1.92;;
836;SDS011;400;53.550;9.932;2023-02-28T00:40:31;3.83;;;1.85;;
836;SDS011;400;53.550;9.932;2023-02-28T00:42:58;2.05;;;1.85;;
836;SDS011;400;53.550;9.932;2023-02-28T00:45:25;3.40;;;2.30;;
836;SDS011;400;53.550;9.932;2023-02-28T00:47:53;4.60;;;2.15;;
836;SDS011;400;53.550;9.932;2023-02-28T00:50:20;2.30;;;2.05;;
836;SDS011;400;53.550;9.932;2023-02-28T00:52:47;3.10;;;1.80;;
836;SDS011;400;53.550;9.932;2023-02-28T00:55:14;3.67;;;2.40;;
836;SDS011;400;53.550;9.932;2023-02-28T00:57:41;4.80;;;2.42;;
836;SDS011;400;53.550;9.932;2023-02-28T01:00:09;5.80;;;2.15;;
836;SDS011;400;53.550;9.932;2023-02-28T01:02:37;3.67;;;2.08;;
836;SDS011;400;53.550;9.932;2023-02-28T01:05:09;4.70;;;2.20;;
836;SDS011;400;53.550;9.932;2023-02-28T01:07:36;6.75;;;2.50;;
836;SDS011;400;53.550;9.932;2023-02-28T01:10:04;3.13;;;2.03;;
836;SDS011;400;53.550;9.932;2023-02-28T01:12:31;3.15;;;2.10;;
836;SDS011;400;53.550;9.932;2023-02-28T01:14:58;3.88;;;2.40;;
836;SDS011;400;53.550;9.932;2023-02-28T01:17:25;3.70;;;2.50;;
836;SDS011;400;53.550;9.932;2023-02-28T01:19:52;3.45;;;2.30;;
836;SDS011;400;53.550;9.932;2023-02-28T01:22:23;5.07;;;2.75;;
836;SDS011;400;53.550;9.932;2023-02-28T01:24:50;3.60;;;1.95;;
836;SDS011;400;53.550;9.932;2023-02-28T01:27:16;3.40;;;2.22;;
836;SDS011;400;53.550;9.932;2023-02-28T01:29:43;3.75;;;2.20;;
836;SDS011;400;53.550;9.932;2023-02-28T01:32:10;2.75;;;1.75;;
836;SDS011;400;53.550;9.932;2023-02-28T01:34:37;2.55;;;2.35;;
836;SDS011;400;53.550;9.932;2023-02-28T01:37:04;2.45;;;2.20;;
836;SDS011;400;53.550;9.932;2023-02-28T01:39:32;2.60;;;2.40;;
836;SDS011;400;53.550;9.932;2023-02-28T01:41:59;3.75;;;2.28;;
836;SDS011;400;53.550;9.932;2023-02-28T01:47:24;4.38;;;2.58;;
836;SDS011;400;53.550;9.932;2023-02-28T01:49:54;3.28;;;2.58;;
836;SDS011;400;53.550;9.932;2023-02-28T01:52:21;2.00;;;1.40;;
836;SDS011;400;53.550;9.932;2023-02-28T01:54:52;3.22;;;1.90;;
836;SDS011;400;53.550;9.932;2023-02-28T01:57:23;4.10;;;2.55;;
836;SDS011;400;53.550;9.932;2023-02-28T01:59:54;3.90;;;2.50;;
836;SDS011;400;53.550;9.932;2023-02-28T02:02:25;3.67;;;2.10;;
836;SDS011;400;53.550;9.932;2023-02-28T02:04:54;5.85;;;2.90;;
836;SDS011;400;53.550;9.932;2023-02-28T02:07:26;5.28;;;2.25;;
836;SDS011;400;53.550;9.932;2023-02-28T02:10:03;2.90;;;2.70;;
836;SDS011;400;53.550;9.932;2023-02-28T02:12:38;4.25;;;2.40;;
836;SDS011;400;53.550;9.932;2023-02-28T02:15:18;2.30;;;2.10;;
836;SDS011;400;53.550;9.932;2023-02-28T02:17:52;4.63;;;2.70;;
836;SDS011;400;53.550;9.932;2023-02-28T02:20:35;2.50;;;2.30;;
836;SDS011;400;53.550;9.932;2023-02-28T02:26:41;3.15;;;2.80;;
836;SDS011;400;53.550;9.932;2023-02-28T02:35:21;4.47;;;2.10;;
836;SDS011;400;53.550;9.932;2023-02-28T02:37:53;3.58;;;3.28;;
836;SDS011;400;53.550;9.932;2023-02-28T02:40:25;3.67;;;2.67;;
836;SDS011;400;53.550;9.932;2023-02-28T02:42:59;2.45;;;2.20;;
836;SDS011;400;53.550;9.932;2023-02-28T02:45:31;2.35;;;2.15;;
836;SDS011;400;53.550;9.932;2023-02-28T02:48:02;4.75;;;3.10;;
836;SDS011;400;53.550;9.932;2023-02-28T02:50:33;5.45;;;3.35;;
836;SDS011;400;53.550;9.932;2023-02-28T02:53:03;3.55;;;3.25;;
836;SDS011;400;53.550;9.932;2023-02-28T02:55:33;3.28;;;2.80;;
836;SDS011;400;53.550;9.932;2023-02-28T02:58:07;5.07;;;2.75;;
836;SDS011;400;53.550;9.932;2023-02-28T03:00:37;4.07;;;3.10;;
836;SDS011;400;53.550;9.932;2023-02-28T03:03:07;4.05;;;3.65;;
836;SDS011;400;53.550;9.932;2023-02-28T03:05:39;4.50;;;3.35;;
836;SDS011;400;53.550;9.932;2023-02-28T03:08:11;3.78;;;3.33;;
836;SDS011;400;53.550;9.932;2023-02-28T03:10:40;4.63;;;3.00;;
836;SDS011;400;53.550;9.932;2023-02-28T03:13:12;4.05;;;3.15;;
836;SDS011;400;53.550;9.932;2023-02-28T03:16:07;8.07;;;3.50;;
836;SDS011;400;53.550;9.932;2023-02-28T03:18:53;3.53;;;2.80;;
836;SDS011;400;53.550;9.932;2023-02-28T03:21:31;4.43;;;3.50;;
836;SDS011;400;53.550;9.932;2023-02-28T03:24:03;4.07;;;3.78;;
836;SDS011;400;53.550;9.932;2023-02-28T03:26:34;4.75;;;3.67;;
836;SDS011;400;53.550;9.932;2023-02-28T03:29:06;5.85;;;4.20;;
836;SDS011;400;53.550;9.932;2023-02-28T03:31:43;5.20;;;3.65;;
836;SDS011;400;53.550;9.932;2023-02-28T03:34:16;5.30;;;4.03;;
836;SDS011;400;53.550;9.932;2023-02-28T03:36:49;4.90;;;3.88;;
836;SDS011;400;53.550;9.932;2023-02-28T03:39:20;5.72;;;3.80;;
836;SDS011;400;53.550;9.932;2023-02-28T03:41:51;5.43;;;4.57;;
836;SDS011;400;53.550;9.932;2023-02-28T03:44:21;5.78;;;4.32;;
836;SDS011;400;53.550;9.932;2023-02-28T03:46:52;9.20;;;3.75;;
836;SDS011;400;53.550;9.932;2023-02-28T03:49:24;6.35;;;4.40;;
836;SDS011;400;53.550;9.932;2023-02-28T03:51:58;4.10;;;3.55;;
836;SDS011;400;53.550;9.932;2023-02-28T03:54:27;4.40;;;4.00;;
836;SDS011;400;53.550;9.932;2023-02-28T03:56:59;6.15;;;4.50;;
836;SDS011;400;53.550;9.932;2023-02-28T03:59:29;5.97;;;4.53;;
836;SDS011;400;53.550;9.932;2023-02-28T04:02:03;4.57;;;4.13;;
836;SDS011;400;53.550;9.932;2023-02-28T04:04:30;6.35;;;4.25;;
836;SDS011;400;53.550;9.932;2023-02-28T04:07:04;4.47;;;3.67;;
836;SDS011;400;53.550;9.932;2023-02-28T04:09:37;5.97;;;5.38;;
836;SDS011;400;53.550;9.932;2023-02-28T04:12:08;6.63;;;5.38;;
836;SDS011;400;53.550;9.932;2023-02-28T04:14:35;4.55;;;3.97;;
836;SDS011;400;53.550;9.932;2023-02-28T04:17:02;6.10;;;4.95;;
836;SDS011;400;53.550;9.932;2023-02-28T04:19:29;4.90;;;4.40;;
836;SDS011;400;53.550;9.932;2023-02-28T04:21:56;5.47;;;4.70;;
836;SDS011;400;53.550;9.932;2023-02-28T04:24:25;6.28;;;5.00;;
836;SDS011;400;53.550;9.932;2023-02-28T04:26:54;5.10;;;4.22;;
836;SDS011;400;53.550;9.932;2023-02-28T04:29:23;7.30;;;5.40;;
836;SDS011;400;53.550;9.932;2023-02-28T04:31:51;7.22;;;6.15;;
836;SDS011;400;53.550;9.932;2023-02-28T04:34:19;6.95;;;5.53;;
836;SDS011;400;53.550;9.932;2023-02-28T04:36:46;5.70;;;5.10;;
836;SDS011;400;53.550;9.932;2023-02-28T04:39:14;10.02;;;5.57;;
836;SDS011;400;53.550;9.932;2023-02-28T04:41:44;9.15;;;5.90;;
836;SDS011;400;53.550;9.932;2023-02-28T04:44:12;6.95;;;5.72;;
836;SDS011;400;53.550;9.932;2023-02-28T04:46:39;5.65;;;5.05;;
836;SDS011;400;53.550;9.932;2023-02-28T04:49:07;5.68;;;5.13;;
836;SDS011;400;53.550;9.932;2023-02-28T04:51:35;8.45;;;5.97;;
836;SDS011;400;53.550;9.932;2023-02-28T04:54:03;8.05;;;5.70;;
836;SDS011;400;53.550;9.932;2023-02-28T04:56:35;7.68;;;6.80;;
836;SDS011;400;53.550;9.932;2023-02-28T04:59:10;8.63;;;6.10;;
836;SDS011;400;53.550;9.932;2023-02-28T05:01:47;7.78;;;6.30;;
836;SDS011;400;53.550;9.932;2023-02-28T05:04:15;7.63;;;5.68;;
836;SDS011;400;53.550;9.932;2023-02-28T05:06:42;6.97;;;5.40;;
836;SDS011;400;53.550;9.932;2023-02-28T05:09:10;7.55;;;5.75;;
836;SDS011;400;53.550;9.932;2023-02-28T05:11:37;7.13;;;5.38;;
836;SDS011;400;53.550;9.932;2023-02-28T05:14:05;8.10;;;5.50;;
836;SDS011;400;53.550;9.932;2023-02-28T05:16:36;6.20;;;4.70;;
836;SDS011;400;53.550;9.932;2023-02-28T05:19:03;7.05;;;6.15;;
836;SDS011;400;53.550;9.932;2023-02-28T05:21:30;7.55;;;5.68;;
836;SDS011;400;53.550;9.932;2023-02-28T05:24:03;7.22;;;5.90;;
836;SDS011;400;53.550;9.932;2023-02-28T05:26:33;7.00;;;6.30;;
836;SDS011;400;53.550;9.932;2023-02-28T05:29:01;7.13;;;5.72;;
836;SDS011;400;53.550;9.932;2023-02-28T05:31:29;9.40;;;4.70;;
836;SDS011;400;53.550;9.932;2023-02-28T05:33:56;6.45;;;5.80;;
836;SDS011;400;53.550;9.932;2023-02-28T05:36:23;6.85;;;6.13;;
836;SDS011;400;53.550;9.932;2023-02-28T05:38:50;8.73;;;5.88;;
836;SDS011;400;53.550;9.932;2023-02-28T05:41:18;9.20;;;6.00;;
836;SDS011;400;53.550;9.932;2023-02-28T05:43:45;7.13;;;5.60;;
836;SDS011;400;53.550;9.932;2023-02-28T05:46:12;6.80;;;6.15;;
836;SDS011;400;53.550;9.932;2023-02-28T05:48:43;11.40;;;6.07;;
836;SDS011;400;53.550;9.932;2023-02-28T05:51:16;6.38;;;4.90;;
836;SDS011;400;53.550;9.932;2023-02-28T05:53:45;5.97;;;5.45;;
836;SDS011;400;53.550;9.932;2023-02-28T05:56:13;8.55;;;6.20;;
836;SDS011;400;53.550;9.932;2023-02-28T05:58:40;7.38;;;6.50;;
836;SDS011;400;53.550;9.932;2023-02-28T06:01:19;6.95;;;6.25;;
836;SDS011;400;53.550;9.932;2023-02-28T06:03:51;8.13;;;5.95;;
836;SDS011;400;53.550;9.932;2023-02-28T06:06:18;6.95;;;6.18;;
836;SDS011;400;53.550;9.932;2023-02-28T06:08:45;7.72;;;6.40;;
836;SDS011;400;53.550;9.932;2023-02-28T06:11:12;7.00;;;6.30;;
836;SDS011;400;53.550;9.932;2023-02-28T06:13:39;6.35;;;5.85;;
836;SDS011;400;53.550;9.932;2023-02-28T06:16:06;9.18;;;6.00;;
836;SDS011;400;53.550;9.932;2023-02-28T06:18:33;9.55;;;6.90;;
836;SDS011;400;53.550;9.932;2023-02-28T06:21:02;9.82;;;7.13;;
836;SDS011;400;53.550;9.932;2023-02-28T06:23:30;10.60;;;7.43;;
836;SDS011;400;53.550;9.932;2023-02-28T06:25:57;8.35;;;7.35;;
836;SDS011;400;53.550;9.932;2023-02-28T06:28:25;9.63;;;6.45;;
836;SDS011;400;53.550;9.932;2023-02-28T06:30:54;6.97;;;6.32;;
836;SDS011;400;53.550;9.932;2023-02-28T06:33:21;7.47;;;6.30;;
836;SDS011;400;53.550;9.932;2023-02-28T06:35:49;10.45;;;7.25;;
836;SDS011;400;53.550;9.932;2023-02-28T06:38:23;9.00;;;6.60;;
836;SDS011;400;53.550;9.932;2023-02-28T06:40:55;12.60;;;7.85;;
836;SDS011;400;53.550;9.932;2023-02-28T06:43:27;7.55;;;5.65;;
836;SDS011;400;53.550;9.932;2023-02-28T06:45:59;8.05;;;6.50;;
836;SDS011;400;53.550;9.932;2023-02-28T06:48:32;6.93;;;6.22;;
836;SDS011;400;53.550;9.932;2023-02-28T06:51:05;8.57;;;6.80;;
836;SDS011;400;53.550;9.932;2023-02-28T06:53:38;8.80;;;7.40;;
836;SDS011;400;53.550;9.932;2023-02-28T06:56:07;9.30;;;6.68;;
836;SDS011;400;53.550;9.932;2023-02-28T06:58:39;10.75;;;7.60;;
836;SDS011;400;53.550;9.932;2023-02-28T07:01:06;8.77;;;7.88;;
836;SDS011;400;53.550;9.932;2023-02-28T07:03:34;10.50;;;7.47;;
836;SDS011;400;53.550;9.932;2023-02-28T07:06:02;8.68;;;6.82;;
836;SDS011;400;53.550;9.932;2023-02-28T07:08:31;7.85;;;6.82;;
836;SDS011;400;53.550;9.932;2023-02-28T07:11:06;11.18;;;7.10;;
836;SDS011;400;53.550;9.932;2023-02-28T07:13:33;9.98;;;8.35;;
836;SDS011;400;53.550;9.932;2023-02-28T07:16:00;9.48;;;7.20;;
836;SDS011;400;53.550;9.932;2023-02-28T07:18:29;13.65;;;7.97;;
836;SDS011;400;53.550;9.932;2023-02-28T07:20:57;10.27;;;7.38;;
836;SDS011;400;53.550;9.932;2023-02-28T07:23:24;9.88;;;6.95;;
836;SDS011;400;53.550;9.932;2023-02-28T07:25:52;10.15;;;8.35;;
836;SDS011;400;53.550;9.932;2023-02-28T07:28:26;12.95;;;8.07;;
836;SDS011;400;53.550;9.932;2023-02-28T07:31:02;15.65;;;9.95;;
836;SDS011;400;53.550;9.932;2023-02-28T07:33:29;15.20;;;9.20;;
836;SDS011;400;53.550;9.932;2023-02-28T07:35:59;18.60;;;9.77;;
836;SDS011;400;53.550;9.932;2023-02-28T07:38:30;18.90;;;13.93;;
836;SDS011;400;53.550;9.932;2023-02-28T07:41:02;21.70;;;11.13;;
836;SDS011;400;53.550;9.932;2023-02-28T07:43:40;16.27;;;10.43;;
836;SDS011;400;53.550;9.932;2023-02-28T07:46:07;15.55;;;10.10;;
836;SDS011;400;53.550;9.932;2023-02-28T07:48:37;11.25;;;7.65;;
836;SDS011;400;53.550;9.932;2023-02-28T07:51:09;13.45;;;8.25;;
836;SDS011;400;53.550;9.932;2023-02-28T07:53:41;9.38;;;8.00;;
836;SDS011;400;53.550;9.932;2023-02-28T07:56:10;13.77;;;7.95;;
836;SDS011;400;53.550;9.932;2023-02-28T07:58:43;9.52;;;8.07;;
836;SDS011;400;53.550;9.932;2023-02-28T08:01:10;17.85;;;8.15;;
836;SDS011;400;53.550;9.932;2023-02-28T08:03:39;6.25;;;5.65;;
836;SDS011;400;53.550;9.932;2023-02-28T08:06:15;12.65;;;8.00;;
836;SDS011;400;53.550;9.932;2023-02-28T08:08:44;8.05;;;5.63;;
836;SDS011;400;53.550;9.932;2023-02-28T08:11:11;7.20;;;4.85;;
836;SDS011;400;53.550;9.932;2023-02-28T08:13:38;9.85;;;4.60;;
836;SDS011;400;53.550;9.932;2023-02-28T08:16:10;7.45;;;5.32;;
836;SDS011;400;53.550;9.932;2023-02-28T08:18:42;7.50;;;4.80;;
836;SDS011;400;53.550;9.932;2023-02-28T08:21:09;7.43;;;6.72;;
836;SDS011;400;53.550;9.932;2023-02-28T08:23:37;6.45;;;5.45;;
836;SDS011;400;53.550;9.932;2023-02-28T08:26:04;9.18;;;5.55;;
836;SDS011;400;53.550;9.932;2023-02-28T08:28:31;6.80;;;5.22;;
836;SDS011;400;53.550;9.932;2023-02-28T08:30:59;9.57;;;3.88;;
836;SDS011;400;53.550;9.932;2023-02-28T08:33:27;5.28;;;3.13;;
836;SDS011;400;53.550;9.932;2023-02-28T08:35:54;4.60;;;3.17;;
836;SDS011;400;53.550;9.932;2023-02-28T08:38:22;4.38;;;2.45;;
836;SDS011;400;53.550;9.932;2023-02-28T08:40:49;5.65;;;3.00;;
836;SDS011;400;53.550;9.932;2023-02-28T08:43:25;4.82;;;2.80;;
836;SDS011;400;53.550;9.932;2023-02-28T08:45:58;2.85;;;2.55;;
836;SDS011;400;53.550;9.932;2023-02-28T08:48:25;11.63;;;4.60;;
836;SDS011;400;53.550;9.932;2023-02-28T08:50:57;4.97;;;2.55;;
836;SDS011;400;53.550;9.932;2023-02-28T08:53:25;5.97;;;4.05;;
836;SDS011;400;53.550;9.932;2023-02-28T08:55:56;2.72;;;2.03;;
836;SDS011;400;53.550;9.932;2023-02-28T08:58:25;4.20;;;2.05;;
836;SDS011;400;53.550;9.932;2023-02-28T09:00:52;3.38;;;3.08;;
836;SDS011;400;53.550;9.932;2023-02-28T09:03:19;7.40;;;3.50;;
836;SDS011;400;53.550;9.932;2023-02-28T09:05:55;4.43;;;3.63;;
836;SDS011;400;53.550;9.932;2023-02-28T09:08:25;3.22;;;2.92;;
836;SDS011;400;53.550;9.932;2023-02-28T09:10:57;11.93;;;2.70;;
836;SDS011;400;53.550;9.932;2023-02-28T09:13:29;7.45;;;4.20;;
836;SDS011;400;53.550;9.932;2023-02-28T09:15:57;5.38;;;2.72;;
836;SDS011;400;53.550;9.932;2023-02-28T09:18:25;3.58;;;2.45;;
836;SDS011;400;53.550;9.932;2023-02-28T09:20:52;2.70;;;2.20;;
836;SDS011;400;53.550;9.932;2023-02-28T09:23:20;2.60;;;2.40;;
836;SDS011;400;53.550;9.932;2023-02-28T09:25:48;2.80;;;1.90;;
836;SDS011;400;53.550;9.932;2023-02-28T09:28:18;2.70;;;1.65;;
836;SDS011;400;53.550;9.932;2023-02-28T09:30:49;1.33;;;1.23;;
836;SDS011;400;53.550;9.932;2023-02-28T09:33:17;1.63;;;1.48;;
836;SDS011;400;53.550;9.932;2023-02-28T09:35:49;3.83;;;1.60;;
836;SDS011;400;53.550;9.932;2023-02-28T09:38:21;1.48;;;1.38;;
836;SDS011;400;53.550;9.932;2023-02-28T09:40:50;0.85;;;0.85;;
836;SDS011;400;53.550;9.932;2023-02-28T09:43:18;2.05;;;1.10;;
836;SDS011;400;53.550;9.932;2023-02-28T09:45:50;0.73;;;0.73;;
836;SDS011;400;53.550;9.932;2023-02-28T09:48:24;2.47;;;1.25;;
836;SDS011;400;53.550;9.932;2023-02-28T09:50:59;0.57;;;0.50;;
836;SDS011;400;53.550;9.932;2023-02-28T09:53:30;0.50;;;0.50;;
836;SDS011;400;53.550;9.932;2023-02-28T09:56:01;1.80;;;0.70;;
836;SDS011;400;53.550;9.932;2023-02-28T09:58:35;0.65;;;0.60;;
836;SDS011;400;53.550;9.932;2023-02-28T10:01:09;1.95;;;1.00;;
836;SDS011;400;53.550;9.932;2023-02-28T10:03:45;1.30;;;0.80;;
836;SDS011;400;53.550;9.932;2023-02-28T10:06:17;0.90;;;0.50;;
836;SDS011;400;53.550;9.932;2023-02-28T10:08:50;1.00;;;0.43;;
836;SDS011;400;53.550;9.932;2023-02-28T10:11:22;0.40;;;0.40;;
836;SDS011;400;53.550;9.932;2023-02-28T10:13:52;1.60;;;1.00;;
836;SDS011;400;53.550;9.932;2023-02-28T10:16:27;0.50;;;0.50;;
836;SDS011;400;53.550;9.932;2023-02-28T10:18:59;1.50;;;0.75;;
836;SDS011;400;53.550;9.932;2023-02-28T10:21:31;3.97;;;1.48;;
836;SDS011;400;53.550;9.932;2023-02-28T10:24:10;1.05;;;0.70;;
836;SDS011;400;53.550;9.932;2023-02-28T10:26:50;0.80;;;0.77;;
836;SDS011;400;53.550;9.932;2023-02-28T10:29:23;2.03;;;0.80;;
836;SDS011;400;53.550;9.932;2023-02-28T10:31:51;1.83;;;0.85;;
836;SDS011;400;53.550;9.932;2023-02-28T10:34:22;3.58;;;1.42;;
836;SDS011;400;53.550;9.932;2023-02-28T10:36:55;1.65;;;1.10;;
836;SDS011;400;53.550;9.932;2023-02-28T10:39:38;2.13;;;1.65;;
836;SDS011;400;53.550;9.932;2023-02-28T10:42:18;2.70;;;2.50;;
836;SDS011;400;53.550;9.932;2023-02-28T10:45:00;4.18;;;2.40;;
836;SDS011;400;53.550;9.932;2023-02-28T10:47:42;5.90;;;2.10;;
836;SDS011;400;53.550;9.932;2023-02-28T10:50:33;3.47;;;1.65;;
836;SDS011;400;53.550;9.932;2023-02-28T10:53:28;2.20;;;1.52;;
836;SDS011;400;53.550;9.932;2023-02-28T10:56:00;2.00;;;1.52;;
836;SDS011;400;53.550;9.932;2023-02-28T10:58:30;2.53;;;1.38;;
836;SDS011;400;53.550;9.932;2023-02-28T11:00:58;3.33;;;1.63;;
836;SDS011;400;53.550;9.932;2023-02-28T11:03:29;2.75;;;1.90;;
836;SDS011;400;53.550;9.932;2023-02-28T11:06:04;3.25;;;1.80;;
836;SDS011;400;53.550;9.932;2023-02-28T11:08:43;3.85;;;2.38;;
836;SDS011;400;53.550;9.932;2023-02-28T11:11:18;5.43;;;1.80;;
836;SDS011;400;53.550;9.932;2023-02-28T11:13:50;2.88;;;1.73;;
836;SDS011;400;53.550;9.932;2023-02-28T11:16:19;3.60;;;1.90;;
836;SDS011;400;53.550;9.932;2023-02-28T11:18:48;2.33;;;1.50;;
836;SDS011;400;53.550;9.932;2023-02-28T11:21:19;1.40;;;1.30;;
836;SDS011;400;53.550;9.932;2023-02-28T11:23:51;2.47;;;1.55;;
836;SDS011;400;53.550;9.932;2023-02-28T11:26:39;1.67;;;1.58;;
836;SDS011;400;53.550;9.932;2023-02-28T11:29:09;2.42;;;1.35;;
836;SDS011;400;53.550;9.932;2023-02-28T11:31:42;2.83;;;2.42;;
836;SDS011;400;53.550;9.932;2023-02-28T11:34:22;2.22;;;1.50;;
836;SDS011;400;53.550;9.932;2023-02-28T11:36:53;2.60;;;1.75;;
836;SDS011;400;53.550;9.932;2023-02-28T11:39:22;1.60;;;1.50;;
836;SDS011;400;53.550;9.932;2023-02-28T11:42:01;5.75;;;1.67;;
836;SDS011;400;53.550;9.932;2023-02-28T11:44:40;3.53;;;1.67;;
836;SDS011;400;53.550;9.932;2023-02-28T11:47:21;2.13;;;1.35;;
836;SDS011;400;53.550;9.932;2023-02-28T11:50:00;6.05;;;2.10;;
836;SDS011;400;53.550;9.932;2023-02-28T11:52:36;2.95;;;1.65;;
836;SDS011;400;53.550;9.932;2023-02-28T11:55:13;2.58;;;1.75;;
836;SDS011;400;53.550;9.932;2023-02-28T11:57:52;4.20;;;2.00;;
836;SDS011;400;53.550;9.932;2023-02-28T12:00:54;3.10;;;2.35;;
836;SDS011;400;53.550;9.932;2023-02-28T12:03:42;2.67;;;1.90;;
836;SDS011;400;53.550;9.932;2023-02-28T12:06:17;3.22;;;1.92;;
836;SDS011;400;53.550;9.932;2023-02-28T12:08:56;4.18;;;1.90;;
836;SDS011;400;53.550;9.932;2023-02-28T12:11:39;1.95;;;1.77;;
836;SDS011;400;53.550;9.932;2023-02-28T12:14:42;4.35;;;1.83;;
836;SDS011;400;53.550;9.932;2023-02-28T12:17:22;4.15;;;2.00;;
836;SDS011;400;53.550;9.932;2023-02-28T12:20:03;2.00;;;1.70;;
836;SDS011;400;53.550;9.932;2023-02-28T12:22:46;3.83;;;3.40;;
836;SDS011;400;53.550;9.932;2023-02-28T12:25:30;2.63;;;2.25;;
836;SDS011;400;53.550;9.932;2023-02-28T12:28:21;1.98;;;1.88;;
836;SDS011;400;53.550;9.932;2023-02-28T12:31:00;3.85;;;2.40;;
836;SDS011;400;53.550;9.932;2023-02-28T12:33:35;5.57;;;2.65;;
836;SDS011;400;53.550;9.932;2023-02-28T12:36:10;3.40;;;2.00;;
836;SDS011;400;53.550;9.932;2023-02-28T12:38:44;9.52;;;5.70;;
836;SDS011;400;53.550;9.932;2023-02-28T12:41:15;9.20;;;6.60;;
836;SDS011;400;53.550;9.932;2023-02-28T12:43:51;2.55;;;2.35;;
836;SDS011;400;53.550;9.932;2023-02-28T12:46:27;2.90;;;2.53;;
836;SDS011;400;53.550;9.932;2023-02-28T12:49:00;4.22;;;2.67;;
836;SDS011;400;53.550;9.932;2023-02-28T12:51:32;8.02;;;2.63;;
836;SDS011;400;53.550;9.932;2023-02-28T12:54:04;13.25;;;2.58;;
836;SDS011;400;53.550;9.932;2023-02-28T12:56:38;2.30;;;2.10;;
836;SDS011;400;53.550;9.932;2023-02-28T12:59:18;3.80;;;1.70;;
836;SDS011;400;53.550;9.932;2023-02-28T13:02:08;5.50;;;1.83;;
836;SDS011;400;53.550;9.932;2023-02-28T13:05:02;4.07;;;2.33;;
836;SDS011;400;53.550;9.932;2023-02-28T13:08:10;4.60;;;2.47;;
836;SDS011;400;53.550;9.932;2023-02-28T13:11:06;2.63;;;2.10;;
836;SDS011;400;53.550;9.932;2023-02-28T13:13:56;3.13;;;2.42;;
836;SDS011;400;53.550;9.932;2023-02-28T13:16:28;3.10;;;1.77;;
836;SDS011;400;53.550;9.932;2023-02-28T13:19:28;5.72;;;2.35;;
836;SDS011;400;53.550;9.932;2023-02-28T13:22:02;2.45;;;2.25;;
836;SDS011;400;53.550;9.932;2023-02-28T13:24:47;2.33;;;2.13;;
836;SDS011;400;53.550;9.932;2023-02-28T13:27:31;4.40;;;2.83;;
836;SDS011;400;53.550;9.932;2023-02-28T13:33:23;1.90;;;1.25;;
836;SDS011;400;53.550;9.932;2023-02-28T13:36:08;2.28;;;1.77;;
836;SDS011;400;53.550;9.932;2023-02-28T13:38:58;4.30;;;1.98;;
836;SDS011;400;53.550;9.932;2023-02-28T13:41:45;1.50;;;1.40;;
836;SDS011;400;53.550;9.932;2023-02-28T13:44:14;2.70;;;1.60;;
836;SDS011;400;53.550;9.932;2023-02-28T13:53:24;4.00;;;2.10;;
836;SDS011;400;53.550;9.932;2023-02-28T13:56:27;2.78;;;1.60;;
836;SDS011;400;53.550;9.932;2023-02-28T13:59:06;1.75;;;1.65;;
836;SDS011;400;53.550;9.932;2023-02-28T14:01:53;4.88;;;2.00;;
836;SDS011;400;53.550;9.932;2023-02-28T14:04:53;3.40;;;2.00;;
836;SDS011;400;53.550;9.932;2023-02-28T14:07:31;3.20;;;1.95;;
836;SDS011;400;53.550;9.932;2023-02-28T14:10:15;2.92;;;1.83;;
836;SDS011;400;53.550;9.932;2023-02-28T14:13:10;2.70;;;1.90;;
836;SDS011;400;53.550;9.932;2023-02-28T14:16:06;9.85;;;2.00;;
836;SDS011;400;53.550;9.932;2023-02-28T14:18:38;2.08;;;1.90;;
836;SDS011;400;53.550;9.932;2023-02-28T14:21:09;3.45;;;2.20;;
836;SDS011;400;53.550;9.932;2023-02-28T14:23:56;3.75;;;1.80;;
836;SDS011;400;53.550;9.932;2023-02-28T14:26:51;13.20;;;9.07;;
836;SDS011;400;53.550;9.932;2023-02-28T14:29:33;3.28;;;1.80;;
836;SDS011;400;53.550;9.932;2023-02-28T14:32:22;3.33;;;1.75;;
836;SDS011;400;53.550;9.932;2023-02-28T14:34:54;3.70;;;2.03;;
836;SDS011;400;53.550;9.932;2023-02-28T14:37:28;5.30;;;2.50;;
836;SDS011;400;53.550;9.932;2023-02-28T14:40:00;4.70;;;2.55;;
836;SDS011;400;53.550;9.932;2023-02-28T14:42:31;3.38;;;2.10;;
836;SDS011;400;53.550;9.932;2023-02-28T14:45:00;6.22;;;2.13;;
836;SDS011;400;53.550;9.932;2023-02-28T14:47:28;2.05;;;1.85;;
836;SDS011;400;53.550;9.932;2023-02-28T14:49:59;2.83;;;2.60;;
836;SDS011;400;53.550;9.932;2023-02-28T14:52:29;3.65;;;2.35;;
836;SDS011;400;53.550;9.932;2023-02-28T14:54:59;2.42;;;1.83;;
836;SDS011;400;53.550;9.932;2023-02-28T14:57:50;2.50;;;2.17;;
836;SDS011;400;53.550;9.932;2023-02-28T15:00:23;2.55;;;2.25;;
836;SDS011;400;53.550;9.932;2023-02-28T15:02:53;5.63;;;2.40;;
836;SDS011;400;53.550;9.932;2023-02-28T15:05:27;3.75;;;3.15;;
836;SDS011;400;53.550;9.932;2023-02-28T15:08:05;2.78;;;1.83;;
836;SDS011;400;53.550;9.932;2023-02-28T15:10:42;3.47;;;2.05;;
836;SDS011;400;53.550;9.932;2023-02-28T15:13:16;2.80;;;2.47;;
836;SDS011;400;53.550;9.932;2023-02-28T15:15:46;2.28;;;1.95;;
836;SDS011;400;53.550;9.932;2023-02-28T15:18:22;3.00;;;2.40;;
836;SDS011;400;53.550;9.932;2023-02-28T15:20:57;1.75;;;1.50;;
836;SDS011;400;53.550;9.932;2023-02-28T15:23:30;6.07;;;4.22;;
836;SDS011;400;53.550;9.932;2023-02-28T15:26:04;4.95;;;2.15;;
836;SDS011;400;53.550;9.932;2023-02-28T15:28:34;2.10;;;1.88;;
836;SDS011;400;53.550;9.932;2023-02-28T15:31:03;2.92;;;2.28;;
836;SDS011;400;53.550;9.932;2023-02-28T15:33:51;5.65;;;3.25;;
836;SDS011;400;53.550;9.932;2023-02-28T15:36:19;2.33;;;2.10;;
836;SDS011;400;53.550;9.932;2023-02-28T15:38:52;6.38;;;3.20;;
836;SDS011;400;53.550;9.932;2023-02-28T15:41:27;2.45;;;2.05;;
836;SDS011;400;53.550;9.932;2023-02-28T15:44:15;2.53;;;2.17;;
836;SDS011;400;53.550;9.932;2023-02-28T15:46:53;4.32;;;2.47;;
836;SDS011;400;53.550;9.932;2023-02-28T15:49:27;3.53;;;2.20;;
836;SDS011;400;53.550;9.932;2023-02-28T15:52:05;5.22;;;3.00;;
836;SDS011;400;53.550;9.932;2023-02-28T15:54:38;2.53;;;2.05;;
836;SDS011;400;53.550;9.932;2023-02-28T15:57:07;2.80;;;2.42;;
836;SDS011;400;53.550;9.932;2023-02-28T15:59:42;22.13;;;13.82;;
836;SDS011;400;53.550;9.932;2023-02-28T16:02:16;2.83;;;2.63;;
836;SDS011;400;53.550;9.932;2023-02-28T16:04:55;4.40;;;2.55;;
836;SDS011;400;53.550;9.932;2023-02-28T16:07:25;5.22;;;2.50;;
836;SDS011;400;53.550;9.932;2023-02-28T16:09:57;3.65;;;2.92;;
836;SDS011;400;53.550;9.932;2023-02-28T16:12:25;2.95;;;2.20;;
836;SDS011;400;53.550;9.932;2023-02-28T16:14:58;2.42;;;1.83;;
836;SDS011;400;53.550;9.932;2023-02-28T16:17:28;3.83;;;1.80;;
836;SDS011;400;53.550;9.932;2023-02-28T16:19:59;5.53;;;2.53;;
836;SDS011;400;53.550;9.932;2023-02-28T16:22:26;10.27;;;7.45;;
836;SDS011;400;53.550;9.932;2023-02-28T16:24:57;3.72;;;2.70;;
836;SDS011;400;53.550;9.932;2023-02-28T16:27:30;3.55;;;2.40;;
836;SDS011;400;53.550;9.932;2023-02-28T16:30:13;4.45;;;3.03;;
836;SDS011;400;53.550;9.932;2023-02-28T16:32:50;4.82;;;2.20;;
836;SDS011;400;53.550;9.932;2023-02-28T16:35:19;2.30;;;1.90;;
836;SDS011;400;53.550;9.932;2023-02-28T16:37:49;3.28;;;1.80;;
836;SDS011;400;53.550;9.932;2023-02-28T16:40:22;9.10;;;2.30;;
836;SDS011;400;53.550;9.932;2023-02-28T16:42:55;4.13;;;2.10;;